Time;durP1;ratioP1;P1;durP2;ratioP2;P2;SDS_P1;SDS_P2;PMS_P1;PMS_P2;Temp;Humidity;BMP_temperature;BMP_pressure;BME280_temperature;BME280_humidity;BME280_pressure;Samples;Min_cycle;Max_cycle;Signal;HPM_P1;HPM_P2
2021/07/22 00:04:47;;;;;;;17.02;10.48;;;;;;;16.90;79.43;102188.28;10456045;28;20045;-61
2021/07/22 00:09:50;;;;;;;12.43;9.75;;;;;;;16.92;79.83;102188.19;10455833;28;20131;-61
2021/07/22 00:14:52;;;;;;;13.70;9.98;;;;;;;16.90;79.92;102198.03;10456156;28;20079;-61
2021/07/22 00:19:54;;;;;;;11.93;9.60;;;;;;;17.03;79.36;102191.03;10455095;28;20072;-61
2021/07/22 00:24:57;;;;;;;14.90;10.68;;;;;;;17.00;79.59;102193.00;10456014;28;20057;-61
2021/07/22 00:29:59;;;;;;;15.77;9.70;;;;;;;17.06;79.94;102193.47;10455647;28;20052;-61
2021/07/22 00:35:02;;;;;;;15.55;11.38;;;;;;;17.04;80.13;102184.78;10461447;28;20055;-61
2021/07/22 00:40:05;;;;;;;14.82;11.23;;;;;;;16.95;80.60;102187.16;10461892;28;20053;-61
2021/07/22 00:45:08;;;;;;;13.05;9.82;;;;;;;17.11;79.61;102187.88;10461554;28;20052;-61
2021/07/22 00:50:10;;;;;;;15.25;11.48;;;;;;;16.88;81.06;102189.34;10462756;28;20053;-61
2021/07/22 00:55:23;;;;;;;15.18;10.98;;;;;;;17.08;79.58;102188.94;10461583;28;20048;-62
2021/07/22 01:00:25;;;;;;;12.38;10.60;;;;;;;16.74;80.41;102174.28;10462180;28;20048;-62
2021/07/22 01:05:28;;;;;;;16.58;11.00;;;;;;;16.75;80.92;102175.97;10460907;28;20045;-60
2021/07/22 01:10:30;;;;;;;11.32;9.77;;;;;;;16.64;80.68;102171.38;10462377;28;20056;-61
2021/07/22 01:15:33;;;;;;;16.40;11.05;;;;;;;16.55;81.67;102166.63;10461703;28;20049;-62
2021/07/22 01:20:35;;;;;;;12.02;10.18;;;;;;;16.51;81.52;102170.41;10460180;28;20045;-60
2021/07/22 01:25:37;;;;;;;16.60;11.38;;;;;;;16.39;82.08;102164.06;10461478;28;20056;-62
2021/07/22 01:30:40;;;;;;;15.85;10.13;;;;;;;16.53;81.42;102171.16;10459959;28;20053;-62
2021/07/22 01:35:42;;;;;;;17.10;10.30;;;;;;;16.50;81.12;102160.78;10460881;28;20052;-61
2021/07/22 01:40:45;;;;;;;16.85;11.73;;;;;;;16.43;81.88;102156.81;10460678;28;20049;-60
2021/07/22 01:45:47;;;;;;;14.02;10.52;;;;;;;16.39;81.43;102158.78;10459703;28;20052;-61
2021/07/22 01:50:49;;;;;;;14.70;11.00;;;;;;;16.29;82.03;102154.97;10460494;28;20409;-60
2021/07/22 01:55:52;;;;;;;14.52;10.10;;;;;;;16.30;81.63;102154.03;10459954;28;20370;-61
2021/07/22 02:00:54;;;;;;;15.45;10.65;;;;;;;16.21;81.51;102154.63;10459890;28;20631;-61
2021/07/22 02:05:56;;;;;;;12.70;9.55;;;;;;;16.39;80.57;102153.50;10459786;28;20103;-62
2021/07/22 02:11:01;;;;;;;14.43;11.52;;;;;;;16.07;82.17;102156.28;10458777;28;20049;-64
2021/07/22 02:16:09;;;;;;;15.07;12.02;;;;;;;16.11;82.17;102154.31;10459138;28;20396;-60
2021/07/22 02:21:11;;;;;;;14.07;11.02;;;;;;;16.02;82.40;102146.91;10459180;28;20041;-61
2021/07/22 02:26:14;;;;;;;15.77;11.90;;;;;;;15.86;83.20;102149.59;10457269;28;20057;-60
2021/07/22 02:31:16;;;;;;;13.95;10.82;;;;;;;15.87;82.34;102149.53;10458570;28;20067;-59
2021/07/22 02:36:18;;;;;;;13.93;10.32;;;;;;;15.93;82.06;102156.22;10457412;28;20103;-62
2021/07/22 02:41:21;;;;;;;20.90;11.80;;;;;;;15.88;82.53;102153.84;10458251;28;20048;-60
2021/07/22 02:46:23;;;;;;;14.95;10.27;;;;;;;15.74;83.28;102164.34;10458055;28;20053;-60
2021/07/22 02:51:26;;;;;;;16.27;11.05;;;;;;;15.67;83.04;102161.19;10457681;28;20088;-61
2021/07/22 02:56:28;;;;;;;19.23;12.48;;;;;;;15.66;83.09;102169.22;10458078;28;20045;-60
2021/07/22 03:01:30;;;;;;;15.23;11.57;;;;;;;15.67;82.69;102171.75;10457535;28;20045;-61
2021/07/22 03:06:33;;;;;;;23.73;11.68;;;;;;;15.66;83.14;102169.22;10457259;28;20458;-61
2021/07/22 03:11:36;;;;;;;17.40;11.43;;;;;;;15.60;83.63;102173.91;10457187;28;20060;-61
2021/07/22 03:16:38;;;;;;;16.13;11.48;;;;;;;15.64;83.02;102165.81;10457088;28;20049;-60
2021/07/22 03:21:40;;;;;;;18.95;12.40;;;;;;;15.65;83.42;102171.00;10456671;28;20489;-64
2021/07/22 03:26:43;;;;;;;18.95;12.60;;;;;;;15.90;82.50;102169.59;10457201;28;20076;-60
2021/07/22 03:31:45;;;;;;;18.73;11.77;;;;;;;16.01;81.82;102169.00;10456516;28;20094;-62
2021/07/22 03:36:47;;;;;;;22.77;13.82;;;;;;;15.85;83.04;102169.03;10456280;28;20071;-60
2021/07/22 03:41:50;;;;;;;17.45;11.70;;;;;;;16.00;82.12;102164.66;10457023;28;20126;-60
2021/07/22 03:46:52;;;;;;;17.23;13.55;;;;;;;15.89;82.54;102158.19;10455271;28;20048;-61
2021/07/22 03:51:55;;;;;;;18.40;13.88;;;;;;;15.81;83.29;102159.59;10438847;28;20053;-60
2021/07/22 03:56:57;;;;;;;21.58;13.27;;;;;;;15.76;83.14;102162.50;10456698;28;20046;-60
2021/07/22 04:02:02;;;;;;;20.77;13.48;;;;;;;15.76;82.61;102168.59;10454842;28;20068;-61
2021/07/22 04:07:05;;;;;;;21.48;14.40;;;;;;;15.79;82.98;102167.59;10457650;28;20063;-62
2021/07/22 04:12:08;;;;;;;17.50;12.38;;;;;;;15.74;83.70;102165.19;10464600;28;20055;-60
2021/07/22 04:17:14;;;;;;;22.60;14.07;;;;;;;15.61;84.29;102175.59;10462889;28;20055;-61
2021/07/22 04:22:17;;;;;;;19.70;13.63;;;;;;;15.72;83.80;102164.44;10463887;28;20052;-61
2021/07/22 04:27:27;;;;;;;23.70;14.07;;;;;;;15.77;83.73;102167.69;10463504;28;20057;-59
2021/07/22 04:32:30;;;;;;;24.95;14.55;;;;;;;15.71;84.15;102161.88;10463742;28;20053;-61
2021/07/22 04:37:32;;;;;;;19.42;13.80;;;;;;;15.89;83.27;102162.63;10463161;28;20512;-61
2021/07/22 04:42:35;;;;;;;19.05;13.80;;;;;;;16.28;82.34;102172.63;10463052;28;20048;-61
2021/07/22 04:47:38;;;;;;;19.65;13.27;;;;;;;15.90;83.58;102167.84;10461687;28;20052;-61
2021/07/22 04:52:40;;;;;;;23.88;13.52;;;;;;;16.12;82.29;102172.72;10462946;28;20052;-62
2021/07/22 04:57:43;;;;;;;23.90;15.15;;;;;;;16.37;82.60;102165.09;10462577;28;20049;-62
2021/07/22 05:02:45;;;;;;;24.38;16.40;;;;;;;16.28;83.45;102175.28;10462286;28;20080;-61
2021/07/22 05:07:48;;;;;;;29.35;18.58;;;;;;;16.34;83.30;102176.72;10461920;28;20071;-61
2021/07/22 05:12:58;;;;;;;24.85;17.15;;;;;;;16.58;83.63;102184.94;10461719;28;20052;-60
2021/07/22 05:18:00;;;;;;;25.42;17.15;;;;;;;16.47;83.98;102184.75;10461513;28;20048;-61
2021/07/22 05:23:03;;;;;;;30.98;19.35;;;;;;;16.65;83.07;102188.91;10461146;28;20056;-61
2021/07/22 05:28:05;;;;;;;28.35;18.27;;;;;;;16.79;83.13;102188.06;10461242;28;20056;-60
2021/07/22 05:33:08;;;;;;;31.80;19.98;;;;;;;16.62;84.16;102177.69;10460936;28;20523;-61
2021/07/22 05:38:10;;;;;;;35.70;20.98;;;;;;;16.90;82.46;102187.44;10460882;28;20049;-61
2021/07/22 05:43:12;;;;;;;33.25;20.52;;;;;;;17.07;82.11;102191.69;10460406;28;20393;-61
2021/07/22 05:48:14;;;;;;;29.60;19.95;;;;;;;17.35;80.20;102189.91;10459160;28;20515;-60
2021/07/22 05:53:17;;;;;;;33.90;22.60;;;;;;;17.03;82.42;102195.44;10460168;28;20480;-61
2021/07/22 05:58:20;;;;;;;41.45;24.55;;;;;;;17.19;82.14;102185.59;10460507;28;20049;-62
2021/07/22 06:03:22;;;;;;;30.25;20.52;;;;;;;17.32;82.38;102188.31;10459550;28;20056;-60
2021/07/22 06:08:25;;;;;;;34.60;22.90;;;;;;;17.36;82.11;102181.88;10459453;28;20055;-61
2021/07/22 06:13:27;;;;;;;33.33;21.10;;;;;;;17.51;82.13;102182.69;10459602;28;20044;-61
2021/07/22 06:18:30;;;;;;;27.48;19.17;;;;;;;17.47;82.00;102191.78;10459725;28;20123;-61
2021/07/22 06:23:32;;;;;;;31.33;20.65;;;;;;;17.99;79.84;102191.03;10459198;28;20045;-61
2021/07/22 06:28:35;;;;;;;29.08;19.77;;;;;;;17.68;81.35;102192.19;10457415;28;20065;-63
2021/07/22 06:33:37;;;;;;;20.92;16.23;;;;;;;18.09;79.81;102193.06;10458351;28;20508;-60
2021/07/22 06:38:40;;;;;;;29.40;21.27;;;;;;;17.88;80.21;102188.25;10458488;28;20083;-61
2021/07/22 06:43:42;;;;;;;30.27;20.40;;;;;;;18.10;80.19;102192.13;10457734;28;20049;-62
2021/07/22 06:48:45;;;;;;;27.20;20.15;;;;;;;18.47;78.77;102185.16;10457998;28;20047;-61
2021/07/22 06:53:48;;;;;;;27.05;19.90;;;;;;;18.54;79.36;102189.09;10457790;28;20049;-60
2021/07/22 06:58:50;;;;;;;32.13;19.90;;;;;;;19.05;78.28;102187.38;10457733;28;20056;-61
2021/07/22 07:03:53;;;;;;;40.00;21.23;;;;;;;18.94;78.45;102188.13;10456910;28;20049;-60
2021/07/22 07:08:55;;;;;;;33.17;21.40;;;;;;;19.12;77.42;102186.81;10457489;28;20053;-60
2021/07/22 07:13:57;;;;;;;28.45;18.23;;;;;;;19.52;75.31;102187.53;10457313;28;20056;-60
2021/07/22 07:19:00;;;;;;;23.25;17.63;;;;;;;19.02;75.90;102192.91;10455608;28;20052;-60
2021/07/22 07:24:02;;;;;;;25.33;17.65;;;;;;;19.52;74.04;102193.72;10456890;28;20500;-59
2021/07/22 07:29:04;;;;;;;23.17;16.00;;;;;;;20.01;72.52;102197.22;10456772;28;20045;-60
2021/07/22 07:34:07;;;;;;;22.88;15.75;;;;;;;20.91;68.84;102189.38;10456634;28;20051;-61
2021/07/22 07:39:13;;;;;;;22.85;16.42;;;;;;;21.17;69.73;102197.09;10456579;28;20056;-62
2021/07/22 07:44:16;;;;;;;22.00;15.73;;;;;;;21.18;69.85;102204.09;10456149;28;20049;-61
2021/07/22 07:49:18;;;;;;;21.85;16.35;;;;;;;21.55;69.40;102209.13;10456355;28;20051;-60
2021/07/22 07:54:23;;;;;;;21.17;16.20;;;;;;;22.01;65.73;102196.50;10455611;28;20041;-63
2021/07/22 07:59:26;;;;;;;18.33;14.85;;;;;;;22.80;65.02;102198.66;10456024;28;20063;-62
2021/07/22 08:04:28;;;;;;;18.00;13.15;;;;;;;23.07;63.62;102197.25;10456555;28;20049;-61
2021/07/22 08:09:30;;;;;;;16.13;13.25;;;;;;;22.29;63.49;102197.66;10455986;28;20052;-61
2021/07/22 08:14:41;;;;;;;17.92;13.63;;;;;;;21.20;67.39;102201.31;10455991;28;20057;-63
2021/07/22 08:19:43;;;;;;;15.48;13.10;;;;;;;21.74;65.74;102204.94;10455757;28;20397;-61
2021/07/22 08:24:46;;;;;;;20.35;13.73;;;;;;;22.24;63.20;102197.19;10455311;28;20060;-61
2021/07/22 08:29:48;;;;;;;15.70;11.85;;;;;;;23.36;61.03;102199.97;10456365;28;20053;-62
2021/07/22 08:34:50;;;;;;;17.27;12.23;;;;;;;21.73;64.07;102187.28;10455611;28;20053;-63
2021/07/22 08:39:57;;;;;;;17.38;11.63;;;;;;;22.02;64.65;102191.03;10454176;28;20041;-63
2021/07/22 08:44:59;;;;;;;15.65;11.30;;;;;;;24.18;58.83;102189.88;10455353;28;20049;-63
2021/07/22 08:50:02;;;;;;;16.38;11.73;;;;;;;22.91;62.41;102200.38;10455205;28;20378;-63
2021/07/22 08:55:05;;;;;;;14.63;11.50;;;;;;;24.17;57.26;102182.81;10459725;28;20049;-62
2021/07/22 09:00:08;;;;;;;13.45;9.95;;;;;;;24.26;60.45;102182.78;10462330;28;20041;-62
2021/07/22 09:05:12;;;;;;;15.93;11.98;;;;;;;21.89;63.56;102193.88;10461517;28;20051;-62
2021/07/22 09:10:16;;;;;;;16.48;10.98;;;;;;;22.54;62.27;102190.25;10462050;28;20053;-63
2021/07/22 09:15:26;;;;;;;16.48;10.38;;;;;;;22.10;62.97;102194.88;10460712;28;20045;-62
2021/07/22 09:20:44;;;;;;;14.18;10.52;;;;;;;22.21;63.41;102187.63;10461716;28;20072;-63
2021/07/22 09:25:48;;;;;;;14.23;11.05;;;;;;;21.90;63.93;102192.03;10461143;28;20420;-63
2021/07/22 09:31:09;;;;;;;12.27;10.05;;;;;;;22.17;60.54;102190.69;10460345;28;20124;-62
2021/07/22 09:36:20;;;;;;;11.83;9.57;;;;;;;24.69;56.35;102188.59;10460979;28;20405;-62
2021/07/22 09:41:24;;;;;;;14.10;9.93;;;;;;;23.99;55.93;102188.91;10460995;28;20041;-62
2021/07/22 09:46:40;;;;;;;13.65;10.93;;;;;;;22.10;61.91;102198.38;10459571;28;20053;-62
2021/07/22 09:51:43;;;;;;;11.55;8.57;;;;;;;23.95;58.24;102192.84;10460876;28;20056;-63
2021/07/22 09:56:45;;;;;;;11.25;7.70;;;;;;;23.85;55.03;102195.50;10460230;28;20053;-64
2021/07/22 10:01:49;;;;;;;10.95;8.38;;;;;;;24.02;54.74;102185.09;10459969;28;20048;-63
2021/07/22 10:06:52;;;;;;;13.27;9.07;;;;;;;23.26;56.36;102193.75;10459256;28;20049;-63
2021/07/22 10:11:55;;;;;;;12.15;8.80;;;;;;;23.47;58.45;102198.97;10458636;28;20481;-62
2021/07/22 10:17:00;;;;;;;12.43;8.30;;;;;;;23.56;57.81;102190.97;10459428;28;20041;-63
2021/07/22 10:22:04;;;;;;;12.68;9.18;;;;;;;23.63;57.00;102182.41;10459474;28;20128;-62
2021/07/22 10:27:07;;;;;;;10.32;8.40;;;;;;;24.94;52.25;102188.91;10457390;28;20065;-63
2021/07/22 10:32:10;;;;;;;9.07;8.02;;;;;;;25.74;51.31;102179.22;10457744;28;20048;-64
2021/07/22 10:37:17;;;;;;;13.00;9.27;;;;;;;25.61;48.45;102177.91;10459228;28;20057;-64
2021/07/22 10:42:40;;;;;;;11.18;7.53;;;;;;;24.36;53.03;102179.22;10457382;28;20045;-63
2021/07/22 10:48:07;;;;;;;8.68;7.68;;;;;;;24.10;54.87;102178.03;10458579;28;20045;-63
2021/07/22 10:53:10;;;;;;;10.40;7.47;;;;;;;24.22;53.49;102162.66;10458067;28;20060;-63
2021/07/22 10:58:38;;;;;;;9.35;8.30;;;;;;;23.66;54.88;102155.41;10457684;28;20130;-63
2021/07/22 11:03:41;;;;;;;9.43;7.72;;;;;;;23.26;53.68;102164.38;10454809;28;20099;-63
2021/07/22 11:08:44;;;;;;;8.13;6.30;;;;;;;24.09;54.09;102160.31;10456181;28;20055;-63
2021/07/22 11:13:49;;;;;;;8.93;6.20;;;;;;;23.59;52.25;102157.78;10457399;28;20059;-63
2021/07/22 11:18:56;;;;;;;8.15;6.40;;;;;;;25.11;49.27;102155.09;10455441;28;20049;-62
2021/07/22 11:24:12;;;;;;;7.93;6.50;;;;;;;24.70;51.16;102151.97;10456774;28;20053;-64
2021/07/22 11:29:21;;;;;;;8.63;7.13;;;;;;;23.40;55.07;102147.91;10456805;28;20056;-63
2021/07/22 11:34:36;;;;;;;9.80;6.72;;;;;;;23.99;52.97;102151.47;10455651;28;20135;-64
2021/07/22 11:39:43;;;;;;;8.73;6.05;;;;;;;24.04;50.89;102145.66;10456771;28;20053;-63
2021/07/22 11:44:59;;;;;;;6.43;5.50;;;;;;;26.76;45.88;102143.81;10455459;28;20053;-63
2021/07/22 11:50:02;;;;;;;7.80;5.97;;;;;;;25.04;48.33;102136.13;10455659;28;20060;-64
2021/07/22 11:55:07;;;;;;;8.55;6.55;;;;;;;23.49;53.35;102135.56;10455444;28;20136;-63
2021/07/22 12:00:22;;;;;;;10.93;6.13;;;;;;;24.59;51.81;102132.41;10455954;28;20060;-64
2021/07/22 12:05:27;;;;;;;6.70;5.88;;;;;;;25.48;47.52;102130.88;10456120;28;20053;-62
2021/07/22 12:10:33;;;;;;;7.38;6.57;;;;;;;24.97;50.55;102141.22;10455873;28;20416;-64
2021/07/22 12:15:36;;;;;;;8.27;5.97;;;;;;;25.89;48.86;102120.47;10455972;28;20044;-63
2021/07/22 12:20:39;;;;;;;7.82;6.50;;;;;;;26.99;43.38;102122.53;10455432;28;20055;-64
2021/07/22 12:26:01;;;;;;;7.13;5.53;;;;;;;25.95;47.05;102119.03;10438123;28;20049;-63
2021/07/22 12:31:20;;;;;;;5.82;5.32;;;;;;;26.87;47.50;102114.78;10460328;28;20048;-64
2021/07/22 12:36:23;;;;;;;10.07;6.15;;;;;;;26.85;45.09;102102.53;10463226;28;20053;-64
2021/07/22 12:41:28;;;;;;;5.70;5.10;;;;;;;25.43;47.58;102105.53;10462029;28;20049;-63
2021/07/22 12:46:32;;;;;;;10.55;4.85;;;;;;;25.81;47.53;102088.22;10463739;28;20060;-62
2021/07/22 12:51:34;;;;;;;8.48;6.03;;;;;;;26.67;45.29;102097.28;10462920;28;20048;-63
2021/07/22 12:56:46;;;;;;;7.45;6.00;;;;;;;23.86;51.51;102097.44;10462391;28;20049;-63
2021/07/22 13:01:56;;;;;;;6.90;6.30;;;;;;;26.65;48.59;102097.44;10462349;28;20409;-63
2021/07/22 13:06:59;;;;;;;6.72;5.35;;;;;;;28.66;42.80;102092.41;10462177;28;20528;-63
2021/07/22 13:12:03;;;;;;;5.80;5.20;;;;;;;27.97;43.55;102081.41;10462068;28;20389;-64
2021/07/22 13:17:05;;;;;;;7.63;5.65;;;;;;;27.33;42.38;102086.66;10462116;28;20045;-62
2021/07/22 13:22:07;;;;;;;5.63;4.93;;;;;;;25.83;42.74;102077.34;10461383;28;20044;-62
2021/07/22 13:27:10;;;;;;;7.07;4.20;;;;;;;26.31;46.26;102075.97;10461260;28;20057;-62
2021/07/22 13:32:12;;;;;;;4.97;4.47;;;;;;;27.78;42.50;102069.16;10461666;28;20107;-63
2021/07/22 13:37:15;;;;;;;5.25;4.75;;;;;;;25.78;45.87;102064.41;10461215;28;20055;-63
2021/07/22 13:42:18;;;;;;;6.07;5.53;;;;;;;25.12;47.52;102060.34;10460237;28;20049;-63
2021/07/22 13:47:21;;;;;;;6.15;5.10;;;;;;;25.59;48.78;102062.78;10459298;28;20448;-63
2021/07/22 13:52:24;;;;;;;8.45;7.28;;;;;;;24.09;49.50;102065.81;10461017;28;20044;-64
2021/07/22 13:57:26;;;;;;;6.30;5.70;;;;;;;24.44;47.96;102050.88;10460459;28;20045;-63
2021/07/22 14:02:29;;;;;;;9.13;5.95;;;;;;;27.22;44.45;102048.31;10460102;28;20049;-63
2021/07/22 14:07:31;;;;;;;8.05;5.80;;;;;;;26.72;43.74;102043.06;10459866;28;20041;-64
2021/07/22 14:12:33;;;;;;;5.28;4.68;;;;;;;28.21;41.90;102039.25;10458282;28;20063;-63
2021/07/22 14:17:36;;;;;;;5.85;5.28;;;;;;;28.68;38.35;102033.84;10459527;28;20049;-64
2021/07/22 14:22:38;;;;;;;5.53;4.88;;;;;;;25.19;43.54;102035.44;10459425;28;20045;-64
2021/07/22 14:27:41;;;;;;;5.25;4.40;;;;;;;25.55;44.93;102026.53;10458831;28;20057;-64
2021/07/22 14:32:43;;;;;;;5.38;4.88;;;;;;;28.28;41.80;102022.25;10459317;28;20057;-63
2021/07/22 14:37:46;;;;;;;4.75;4.35;;;;;;;25.81;43.33;102010.44;10458496;28;20401;-62
2021/07/22 14:42:48;;;;;;;5.85;4.55;;;;;;;27.77;41.33;102005.56;10458293;28;20426;-63
2021/07/22 14:47:50;;;;;;;5.97;4.80;;;;;;;24.95;46.05;102006.59;10458231;28;20056;-62
2021/07/22 14:52:52;;;;;;;4.57;4.00;;;;;;;26.84;45.05;102002.25;10457085;28;20045;-62
2021/07/22 14:57:55;;;;;;;5.32;4.22;;;;;;;25.58;43.98;102002.91;10456575;28;20048;-62
2021/07/22 15:03:00;;;;;;;7.00;3.97;;;;;;;27.04;40.69;101992.03;10457746;28;20051;-61
2021/07/22 15:08:03;;;;;;;4.68;4.20;;;;;;;28.62;40.68;102001.38;10457869;28;20041;-62
2021/07/22 15:13:06;;;;;;;5.43;4.90;;;;;;;26.04;44.21;101997.34;10457438;28;20412;-63
2021/07/22 15:18:08;;;;;;;6.93;4.30;;;;;;;27.79;40.96;101998.19;10457097;28;20048;-62
2021/07/22 15:23:14;;;;;;;4.45;4.05;;;;;;;26.46;43.29;101987.56;10457114;28;20055;-61
2021/07/22 15:28:16;;;;;;;5.15;4.25;;;;;;;26.15;44.21;101988.16;10456050;28;20056;-62
2021/07/22 15:33:18;;;;;;;4.53;4.13;;;;;;;25.67;42.76;101979.69;10456001;28;20061;-62
2021/07/22 15:38:24;;;;;;;4.93;3.78;;;;;;;25.13;44.32;101976.25;10456674;28;20049;-62
2021/07/22 15:43:26;;;;;;;4.28;3.75;;;;;;;25.09;45.87;101980.25;10457077;28;20056;-62
2021/07/22 15:48:28;;;;;;;5.03;4.15;;;;;;;25.25;45.59;101982.22;10456497;28;20052;-62
2021/07/22 15:53:31;;;;;;;5.10;4.10;;;;;;;25.62;44.04;101982.00;10455107;28;20053;-63
2021/07/22 15:58:33;;;;;;;4.72;4.20;;;;;;;24.89;45.18;101971.56;10454975;28;20056;-63
2021/07/22 16:03:36;;;;;;;5.18;4.68;;;;;;;26.20;42.32;101967.03;10458385;28;20048;-63
2021/07/22 16:08:40;;;;;;;6.05;4.35;;;;;;;25.03;44.18;101966.50;10464201;28;20045;-63
2021/07/22 16:13:42;;;;;;;4.80;3.83;;;;;;;25.13;45.61;101965.53;10464359;28;20045;-61
2021/07/22 16:18:45;;;;;;;4.88;3.75;;;;;;;25.30;45.75;101963.84;10464195;28;20128;-63
2021/07/22 16:23:47;;;;;;;6.05;4.20;;;;;;;25.04;45.08;101954.75;10463703;28;20049;-62
2021/07/22 16:28:54;;;;;;;4.45;4.00;;;;;;;24.71;45.32;101950.97;10463316;28;20053;-61
2021/07/22 16:33:56;;;;;;;6.25;4.05;;;;;;;23.46;46.30;101949.59;10463530;28;20049;-63
2021/07/22 16:38:58;;;;;;;9.60;4.07;;;;;;;24.17;46.05;101940.16;10462926;28;20501;-61
2021/07/22 16:44:02;;;;;;;3.97;3.67;;;;;;;24.52;45.63;101938.53;10463055;28;20485;-62
2021/07/22 16:49:05;;;;;;;5.65;4.70;;;;;;;23.79;46.60;101939.38;10461725;28;20041;-61
2021/07/22 16:54:07;;;;;;;6.88;4.82;;;;;;;24.16;47.40;101938.50;10463100;28;20053;-63
2021/07/22 16:59:09;;;;;;;5.15;3.97;;;;;;;24.48;46.71;101926.47;10462524;28;20052;-62
2021/07/22 17:04:12;;;;;;;4.55;3.80;;;;;;;24.42;48.18;101929.75;10462732;28;20052;-63
2021/07/22 17:09:15;;;;;;;4.60;3.95;;;;;;;23.97;48.41;101925.22;10460569;28;20401;-63
2021/07/22 17:14:17;;;;;;;4.47;3.50;;;;;;;24.38;47.14;101923.03;10460373;28;20057;-62
2021/07/22 17:19:20;;;;;;;5.05;4.00;;;;;;;23.37;48.97;101929.09;10461664;28;20444;-63
2021/07/22 17:24:22;;;;;;;3.60;3.30;;;;;;;23.62;47.31;101922.28;10460603;28;20055;-62
2021/07/22 17:29:24;;;;;;;4.07;3.65;;;;;;;23.39;48.96;101916.44;10460162;28;20064;-62
2021/07/22 17:34:27;;;;;;;5.65;3.75;;;;;;;23.17;49.30;101912.28;10461299;28;20049;-63
2021/07/22 17:39:29;;;;;;;3.92;3.03;;;;;;;23.12;49.22;101919.88;10460828;28;20048;-63
2021/07/22 17:44:31;;;;;;;3.72;3.20;;;;;;;22.79;49.06;101920.13;10460984;28;20041;-63
2021/07/22 17:49:34;;;;;;;5.97;3.55;;;;;;;22.15;49.56;101913.44;10460626;28;20485;-63
2021/07/22 17:54:36;;;;;;;8.75;3.50;;;;;;;22.38;49.94;101910.59;10460570;28;20057;-62
2021/07/22 17:59:39;;;;;;;7.75;3.55;;;;;;;22.01;48.92;101925.34;10460197;28;20102;-62
2021/07/22 18:04:41;;;;;;;4.40;2.90;;;;;;;22.14;50.89;101918.91;10459884;28;20056;-62
2021/07/22 18:09:43;;;;;;;3.58;3.28;;;;;;;22.07;50.92;101923.94;10459759;28;20509;-62
2021/07/22 18:14:46;;;;;;;4.55;3.35;;;;;;;21.70;52.87;101933.38;10459430;28;20401;-62
2021/07/22 18:19:48;;;;;;;4.28;2.55;;;;;;;21.73;51.95;101931.41;10459608;28;20131;-62
2021/07/22 18:24:50;;;;;;;3.55;3.25;;;;;;;21.43;53.83;101941.88;10459100;28;20049;-62
2021/07/22 18:29:53;;;;;;;4.28;2.55;;;;;;;21.44;54.69;101932.91;10459496;28;20056;-62
2021/07/22 18:35:15;;;;;;;3.75;2.85;;;;;;;21.35;54.49;101941.72;10457624;28;20408;-63
2021/07/22 18:40:21;;;;;;;4.70;3.25;;;;;;;21.15;55.94;101930.94;10458669;28;20095;-62
2021/07/22 18:45:23;;;;;;;3.03;2.63;;;;;;;20.81;56.83;101932.91;10457334;28;20055;-63
2021/07/22 18:50:26;;;;;;;5.93;3.35;;;;;;;20.66;56.38;101928.84;10458602;28;20048;-62
2021/07/22 18:55:28;;;;;;;4.93;2.55;;;;;;;20.48;57.15;101932.03;10456970;28;20044;-63
2021/07/22 19:00:30;;;;;;;2.75;2.42;;;;;;;20.38;56.46;101926.59;10456794;28;20063;-64
2021/07/22 19:05:33;;;;;;;4.28;3.13;;;;;;;19.95;58.12;101937.19;10458094;28;20045;-62
2021/07/22 19:10:36;;;;;;;5.38;2.55;;;;;;;19.91;59.41;101944.56;10457659;28;20041;-62
2021/07/22 19:15:39;;;;;;;3.40;3.10;;;;;;;19.80;60.75;101949.88;10457378;28;20107;-62
2021/07/22 19:20:41;;;;;;;4.15;3.50;;;;;;;19.74;60.63;101951.16;10457326;28;20060;-64
2021/07/22 19:25:44;;;;;;;4.72;4.25;;;;;;;19.39;62.04;101956.56;10455558;28;20049;-63
2021/07/22 19:30:46;;;;;;;4.38;3.80;;;;;;;19.66;60.94;101959.72;10456824;28;20496;-64
2021/07/22 19:35:48;;;;;;;4.72;3.80;;;;;;;19.46;60.58;101963.09;10456778;28;20049;-63
2021/07/22 19:40:51;;;;;;;5.32;4.35;;;;;;;19.21;61.53;101969.41;10456083;28;20051;-64
2021/07/22 19:45:53;;;;;;;3.35;3.05;;;;;;;18.92;62.19;101969.78;10456412;28;20063;-62
2021/07/22 19:50:56;;;;;;;4.57;4.10;;;;;;;18.52;64.53;101967.38;10457276;28;20041;-62
2021/07/22 19:55:59;;;;;;;4.70;4.15;;;;;;;18.40;65.12;101970.94;10438638;28;20060;-63
2021/07/22 20:01:01;;;;;;;5.90;4.20;;;;;;;18.06;66.38;101978.63;10456687;28;20052;-64
2021/07/22 20:06:03;;;;;;;5.53;3.95;;;;;;;18.15;66.45;101981.47;10456620;28;20049;-63
2021/07/22 20:11:08;;;;;;;5.32;3.97;;;;;;;17.99;67.15;101986.16;10456200;28;20049;-62
2021/07/22 20:16:11;;;;;;;4.47;3.65;;;;;;;17.81;67.67;101986.44;10456586;28;20055;-64
2021/07/22 20:21:14;;;;;;;4.70;4.25;;;;;;;17.73;67.36;101996.72;10455951;28;20045;-63
2021/07/22 20:26:16;;;;;;;5.07;4.60;;;;;;;17.75;67.11;101992.19;10454472;28;20081;-63
2021/07/22 20:31:18;;;;;;;6.32;4.53;;;;;;;17.22;68.75;101994.84;10455374;28;20060;-62
2021/07/22 20:36:21;;;;;;;8.95;5.00;;;;;;;17.41;67.67;101994.47;10455513;28;20516;-63
2021/07/22 20:41:23;;;;;;;6.57;5.20;;;;;;;17.42;68.51;101996.19;10455376;28;20048;-62
2021/07/22 20:46:25;;;;;;;7.85;4.75;;;;;;;16.96;69.83;101993.91;10455385;28;20052;-63
2021/07/22 20:51:32;;;;;;;6.47;4.75;;;;;;;17.07;69.96;101991.44;10460210;28;20511;-62
2021/07/22 20:56:34;;;;;;;6.65;5.25;;;;;;;16.73;71.64;101982.19;10462673;28;20523;-62
2021/07/22 21:01:39;;;;;;;7.57;4.30;;;;;;;16.82;71.45;101983.38;10462146;28;20045;-63
2021/07/22 21:06:42;;;;;;;6.97;4.47;;;;;;;16.54;72.23;101977.22;10462381;28;20098;-62
2021/07/22 21:11:44;;;;;;;5.25;4.72;;;;;;;16.35;72.91;101981.03;10462269;28;20049;-62
2021/07/22 21:16:46;;;;;;;5.75;4.40;;;;;;;16.55;72.08;101972.78;10460456;28;20497;-62
2021/07/22 21:21:49;;;;;;;6.25;4.40;;;;;;;16.61;71.86;101973.25;10461259;28;20049;-64
2021/07/22 21:26:51;;;;;;;5.03;4.47;;;;;;;16.18;73.31;101981.25;10461208;28;20363;-62
2021/07/22 21:31:53;;;;;;;7.35;4.10;;;;;;;15.98;74.68;101983.31;10461057;28;20486;-62
2021/07/22 21:36:56;;;;;;;6.93;4.78;;;;;;;16.19;72.57;101980.31;10460976;28;20048;-63
2021/07/22 21:41:59;;;;;;;5.28;4.78;;;;;;;15.98;74.08;101982.47;10461292;28;20060;-63
2021/07/22 21:47:01;;;;;;;9.88;4.65;;;;;;;15.80;74.88;101987.06;10460855;28;20045;-63
2021/07/22 21:52:05;;;;;;;7.95;4.57;;;;;;;15.96;73.83;101987.00;10460554;28;20378;-62
2021/07/22 21:57:08;;;;;;;5.22;4.60;;;;;;;15.86;74.77;101993.81;10459139;28;20428;-62
2021/07/22 22:02:10;;;;;;;5.35;4.85;;;;;;;15.74;75.38;101992.72;10459643;28;20041;-63
2021/07/22 22:07:13;;;;;;;4.82;4.40;;;;;;;15.74;74.47;101996.19;10459151;28;20045;-63
2021/07/22 22:12:16;;;;;;;5.75;5.20;;;;;;;15.64;74.78;102002.97;10459968;28;20095;-62
2021/07/22 22:17:18;;;;;;;5.63;4.15;;;;;;;15.66;74.94;102009.00;10459441;28;20489;-63
2021/07/22 22:22:22;;;;;;;6.30;4.63;;;;;;;15.51;75.07;102015.19;10459539;28;20055;-62
2021/07/22 22:27:24;;;;;;;6.85;5.50;;;;;;;15.41;76.15;102020.16;10458078;28;20061;-62
2021/07/22 22:32:27;;;;;;;6.47;4.63;;;;;;;15.51;74.83;102018.69;10457827;28;20053;-62
2021/07/22 22:37:29;;;;;;;5.72;4.30;;;;;;;15.24;75.81;102021.97;10459511;28;20045;-63
2021/07/22 22:42:31;;;;;;;5.75;5.25;;;;;;;15.19;75.57;102025.84;10458970;28;20128;-63
2021/07/22 22:47:34;;;;;;;7.05;5.03;;;;;;;14.94;76.71;102027.22;10458378;28;20048;-62
2021/07/22 22:52:36;;;;;;;6.00;4.88;;;;;;;15.29;74.23;102020.88;10458226;28;20493;-62
2021/07/22 22:57:38;;;;;;;8.57;5.28;;;;;;;14.96;76.12;102013.94;10456740;28;20052;-62
2021/07/22 23:02:41;;;;;;;5.22;4.80;;;;;;;14.79;76.46;102022.81;10458168;28;20049;-63